Upstream stations:
Downstream station:
SHEF ID: DSCT2 S Side Canal nr Dundee, TX
STATION TYPE:
STAGE RIV-FLOW BAT-LOAD
ft cfs volt
Ccp-Rev Ccp-Rev Ccp-Rev
(US/Central)
07/09 00:00 6.68 273 12.89
07/09 01:00 6.67 272 12.81
07/09 02:00 6.67 272 12.81
07/09 03:00 6.66 271 12.81
07/09 04:00 6.67 272 12.81
07/09 05:00 6.67 272 12.81
07/09 06:00 6.67 272 12.73
07/09 07:00 6.66 271 12.73
07/09 08:00 6.67 272 12.89
07/09 09:00 6.70 276 13.21
07/09 10:00 6.74 282 13.21
07/09 11:00 6.73 281 13.37
07/09 12:00 6.75 283 13.44
07/09 13:00 6.75 283 13.44
07/09 14:00 6.73 281 13.53
07/09 15:00 6.82 294 13.44
07/09 16:00 6.85 298 13.44
07/09 17:00 6.85 298 13.44
07/09 18:00 6.88 302 13.44
07/09 19:00 6.86 299 13.44
07/09 20:00 6.87 301 13.29
07/09 21:00 6.87 301 12.97
07/09 22:00 6.89 304 12.89
07/09 23:00 ---- ---- ----